Time;durP1;ratioP1;P1;durP2;ratioP2;P2;SDS_P1;SDS_P2;PMS_P1;PMS_P2;Temp;Humidity;BMP_temperature;BMP_pressure;BME280_temperature;BME280_humidity;BME280_pressure;Samples;Min_cycle;Max_cycle;Signal;HPM_P1;HPM_P2
2023/09/11 00:01:18;;;;;;;;;;;24.80;99.90;;;;;;8378356;28;20403;-71
2023/09/11 00:05:20;;;;;;;;;;;24.70;99.90;;;;;;8377146;28;19951;-71
2023/09/11 00:09:22;;;;;;;;;;;24.70;99.90;;;;;;8369593;28;19925;-71
2023/09/11 00:13:23;;;;;;;;;;;24.70;99.90;;;;;;8374164;28;19950;-71
2023/09/11 00:17:25;;;;;;;;;;;24.60;99.90;;;;;;8368675;28;20406;-71
2023/09/11 00:21:27;;;;;;;;;;;24.60;99.90;;;;;;8365020;28;19931;-71
2023/09/11 00:25:28;;;;;;;;;;;24.60;99.90;;;;;;8387049;28;20439;-71
2023/09/11 00:29:30;;;;;;;;;;;24.50;99.90;;;;;;8372663;28;20030;-71
2023/09/11 00:33:32;;;;;;;;;;;24.50;99.90;;;;;;8378666;28;19933;-71
2023/09/11 00:37:33;;;;;;;;;;;24.50;99.90;;;;;;8371028;28;19941;-71
2023/09/11 00:41:36;;;;;;;;;;;24.40;99.90;;;;;;8371354;28;20329;-71
2023/09/11 00:45:38;;;;;;;;;;;24.40;99.90;;;;;;8354917;28;19932;-71
2023/09/11 00:49:40;;;;;;;;;;;24.40;99.90;;;;;;8374805;28;19924;-71
2023/09/11 00:53:41;;;;;;;;;;;24.30;99.90;;;;;;8370800;28;19924;-71
2023/09/11 00:57:43;;;;;;;;;;;24.30;99.90;;;;;;8369481;28;19928;-71
2023/09/11 01:01:45;;;;;;;;;;;24.30;99.90;;;;;;8372398;28;20299;-71
2023/09/11 01:05:48;;;;;;;;;;;24.30;99.90;;;;;;8377735;28;19933;-71
2023/09/11 01:09:50;;;;;;;;;;;24.20;99.90;;;;;;8373196;28;20421;-71
2023/09/11 01:13:51;;;;;;;;;;;24.20;99.90;;;;;;8379994;28;20003;-71
2023/09/11 01:17:53;;;;;;;;;;;24.10;99.90;;;;;;8373379;28;19935;-71
2023/09/11 01:21:57;;;;;;;;;;;24.00;99.90;;;;;;8377023;28;19932;-71
2023/09/11 01:26:02;;;;;;;;;;;24.00;99.90;;;;;;8374044;28;20406;-71
2023/09/11 01:30:04;;;;;;;;;;;23.90;99.90;;;;;;8366774;28;19931;-71
2023/09/11 01:34:07;;;;;;;;;;;23.90;99.90;;;;;;8367546;28;19929;-71
2023/09/11 01:38:09;;;;;;;;;;;23.90;99.90;;;;;;8376385;28;20353;-71
2023/09/11 01:42:15;;;;;;;;;;;23.90;99.90;;;;;;8372866;28;20422;-71
2023/09/11 01:46:17;;;;;;;;;;;23.80;99.90;;;;;;8378017;28;19924;-71
2023/09/11 01:50:20;;;;;;;;;;;23.80;99.90;;;;;;8374160;28;19955;-71
2023/09/11 01:54:23;;;;;;;;;;;23.80;99.90;;;;;;8371050;28;20425;-71
2023/09/11 01:58:25;;;;;;;;;;;23.70;99.90;;;;;;8368355;28;19925;-71
2023/09/11 02:02:29;;;;;;;;;;;23.60;99.90;;;;;;8355535;28;19979;-71
2023/09/11 02:06:31;;;;;;;;;;;23.50;99.90;;;;;;8374651;28;19979;-71
2023/09/11 02:10:33;;;;;;;;;;;23.50;99.90;;;;;;8369876;28;19967;-71
2023/09/11 02:14:34;;;;;;;;;;;23.40;99.90;;;;;;8382157;28;20275;-71
2023/09/11 02:18:38;;;;;;;;;;;23.40;99.90;;;;;;8380793;28;19931;-71
2023/09/11 02:22:40;;;;;;;;;;;23.40;99.90;;;;;;8377467;28;19970;-71
2023/09/11 02:26:41;;;;;;;;;;;23.40;99.90;;;;;;8371227;28;19925;-71
2023/09/11 02:30:43;;;;;;;;;;;23.40;99.90;;;;;;8370044;28;19925;-71
2023/09/11 02:34:44;;;;;;;;;;;23.40;99.90;;;;;;8372819;28;19928;-71
2023/09/11 02:38:46;;;;;;;;;;;23.40;99.90;;;;;;8369444;28;19931;-71
2023/09/11 02:42:48;;;;;;;;;;;23.40;99.90;;;;;;8379678;28;19947;-71
2023/09/11 02:46:49;;;;;;;;;;;23.40;99.90;;;;;;8363577;28;19924;-71
2023/09/11 02:50:51;;;;;;;;;;;23.40;99.90;;;;;;8364801;28;19931;-71
2023/09/11 02:54:53;;;;;;;;;;;23.30;99.90;;;;;;8371359;28;19979;-71
2023/09/11 02:58:55;;;;;;;;;;;23.30;99.90;;;;;;8383775;28;19925;-71
2023/09/11 03:07:40;;;;;;;;;;;23.20;99.90;;;;;;8383639;28;19924;-71
2023/09/11 03:11:42;;;;;;;;;;;23.30;99.90;;;;;;8376913;28;20023;-71
2023/09/11 03:15:44;;;;;;;;;;;23.20;99.90;;;;;;8374946;28;19925;-71
2023/09/11 03:19:45;;;;;;;;;;;23.20;99.90;;;;;;8382806;28;19931;-71
2023/09/11 03:23:47;;;;;;;;;;;23.20;99.90;;;;;;8375872;28;19925;-71
2023/09/11 03:28:11;;;;;;;;;;;23.20;99.90;;;;;;8371584;28;20298;-71
2023/09/11 03:32:12;;;;;;;;;;;23.20;99.90;;;;;;8367155;28;20287;-71
2023/09/11 03:36:15;;;;;;;;;;;23.10;99.90;;;;;;8370961;28;19925;-71
2023/09/11 03:40:20;;;;;;;;;;;23.00;99.90;;;;;;8369103;28;19932;-71
2023/09/11 03:44:21;;;;;;;;;;;23.00;99.90;;;;;;8381681;28;19929;-71
2023/09/11 03:48:23;;;;;;;;;;;23.00;99.90;;;;;;8375301;28;19929;-71
2023/09/11 03:52:25;;;;;;;;;;;23.00;99.90;;;;;;8375674;28;19928;-71
2023/09/11 03:56:27;;;;;;;;;;;23.00;99.90;;;;;;8379930;28;19931;-71
2023/09/11 04:00:28;;;;;;;;;;;23.00;99.90;;;;;;8367306;28;20573;-71
2023/09/11 04:04:30;;;;;;;;;;;22.90;99.90;;;;;;8376278;28;19928;-71
2023/09/11 04:08:32;;;;;;;;;;;22.90;99.90;;;;;;8376715;28;19924;-72
2023/09/11 04:12:33;;;;;;;;;;;22.80;99.90;;;;;;8374115;28;20389;-71
2023/09/11 04:16:35;;;;;;;;;;;22.80;99.90;;;;;;8373998;28;20299;-71
2023/09/11 04:20:37;;;;;;;;;;;22.80;99.90;;;;;;8375961;28;19960;-71
2023/09/11 04:24:38;;;;;;;;;;;22.70;99.90;;;;;;8376513;28;19935;-71
2023/09/11 04:28:40;;;;;;;;;;;22.70;99.90;;;;;;8349446;28;19925;-71
2023/09/11 04:32:42;;;;;;;;;;;22.70;99.90;;;;;;8372456;28;19971;-71
2023/09/11 04:36:44;;;;;;;;;;;22.60;99.90;;;;;;8369867;28;20364;-71
2023/09/11 04:40:45;;;;;;;;;;;22.60;99.90;;;;;;8357960;28;20372;-71
2023/09/11 04:44:47;;;;;;;;;;;22.60;99.90;;;;;;8378101;28;19925;-71
2023/09/11 04:48:48;;;;;;;;;;;22.60;99.90;;;;;;8371680;28;20430;-71
2023/09/11 04:52:51;;;;;;;;;;;22.50;99.90;;;;;;8374813;28;19924;-71
2023/09/11 04:56:53;;;;;;;;;;;22.40;99.90;;;;;;8373328;28;19976;-71
2023/09/11 05:00:55;;;;;;;;;;;22.40;99.90;;;;;;8372190;28;20444;-71
2023/09/11 05:04:56;;;;;;;;;;;22.40;99.90;;;;;;8369921;28;19925;-71
2023/09/11 05:08:58;;;;;;;;;;;22.40;99.90;;;;;;8380214;28;19940;-71
2023/09/11 05:13:03;;;;;;;;;;;22.40;99.90;;;;;;8375937;28;19931;-71
2023/09/11 05:17:05;;;;;;;;;;;22.40;99.90;;;;;;8377762;28;20257;-71
2023/09/11 05:21:06;;;;;;;;;;;22.40;99.90;;;;;;8367310;28;20394;-71
2023/09/11 05:25:10;;;;;;;;;;;22.40;99.90;;;;;;8369129;28;19929;-71
2023/09/11 05:29:11;;;;;;;;;;;22.40;99.90;;;;;;8382273;28;19924;-71
2023/09/11 05:33:13;;;;;;;;;;;22.40;99.90;;;;;;8366962;28;19987;-71
2023/09/11 05:37:15;;;;;;;;;;;22.40;99.90;;;;;;8388771;28;19928;-71
2023/09/11 05:41:20;;;;;;;;;;;22.40;99.90;;;;;;8373738;28;19925;-71
2023/09/11 05:45:21;;;;;;;;;;;22.30;99.90;;;;;;8377584;28;19925;-71
2023/09/11 05:49:23;;;;;;;;;;;22.30;99.90;;;;;;8371634;28;19924;-71
2023/09/11 05:53:25;;;;;;;;;;;22.30;99.90;;;;;;8380517;28;20361;-70
2023/09/11 05:57:26;;;;;;;;;;;22.40;99.90;;;;;;8375421;28;19924;-71
2023/09/11 06:01:28;;;;;;;;;;;22.40;99.90;;;;;;8384791;28;19932;-71
2023/09/11 06:05:31;;;;;;;;;;;22.40;99.90;;;;;;8380117;28;19928;-71
2023/09/11 06:09:32;;;;;;;;;;;22.40;99.90;;;;;;8354454;28;19929;-71
2023/09/11 06:13:35;;;;;;;;;;;22.40;99.90;;;;;;8373245;28;19981;-71
2023/09/11 06:23:06;;;;;;;;;;;22.40;99.90;;;;;;8375228;28;19966;-71
2023/09/11 06:27:08;;;;;;;;;;;22.50;99.90;;;;;;8386314;28;19925;-71
2023/09/11 06:31:10;;;;;;;;;;;22.50;99.90;;;;;;8378000;28;19932;-71
2023/09/11 06:35:12;;;;;;;;;;;22.50;99.90;;;;;;8357711;28;19925;-71
2023/09/11 06:39:13;;;;;;;;;;;22.60;99.90;;;;;;8376337;28;19925;-71
2023/09/11 06:43:15;;;;;;;;;;;22.70;99.90;;;;;;8374483;28;19928;-71
2023/09/11 06:47:17;;;;;;;;;;;22.70;99.90;;;;;;8375317;28;19925;-71
2023/09/11 06:51:18;;;;;;;;;;;22.80;99.90;;;;;;8377876;28;19977;-71
2023/09/11 06:55:20;;;;;;;;;;;22.80;99.90;;;;;;8373733;28;19928;-71
2023/09/11 06:59:22;;;;;;;;;;;22.90;99.90;;;;;;8378164;28;19932;-71
2023/09/11 07:03:23;;;;;;;;;;;22.90;99.90;;;;;;8376722;28;19925;-71
2023/09/11 07:07:25;;;;;;;;;;;22.90;99.90;;;;;;8375863;28;20463;-71
2023/09/11 07:11:27;;;;;;;;;;;22.90;99.90;;;;;;8356006;28;19932;-71
2023/09/11 07:20:12;;;;;;;;;;;23.10;99.90;;;;;;8349738;28;19979;-71
2023/09/11 07:24:13;;;;;;;;;;;23.10;99.90;;;;;;8337779;28;20273;-70
2023/09/11 07:28:15;;;;;;;;;;;23.20;99.90;;;;;;8338930;28;19933;-71
2023/09/11 07:32:17;;;;;;;;;;;23.20;99.90;;;;;;8341446;28;19995;-71
2023/09/11 07:36:19;;;;;;;;;;;23.20;99.90;;;;;;8334663;28;19983;-71
2023/09/11 07:40:20;;;;;;;;;;;23.20;99.90;;;;;;8358591;28;19932;-71
2023/09/11 07:44:22;;;;;;;;;;;23.30;99.90;;;;;;8347379;28;19929;-71
2023/09/11 07:48:24;;;;;;;;;;;23.30;99.90;;;;;;8341849;28;19983;-71
2023/09/11 07:52:25;;;;;;;;;;;23.40;99.90;;;;;;8340301;28;20141;-71
2023/09/11 07:56:27;;;;;;;;;;;23.50;99.90;;;;;;8338232;28;19948;-71
2023/09/11 08:00:30;;;;;;;;;;;23.50;99.90;;;;;;8338870;28;20015;-71
2023/09/11 08:04:32;;;;;;;;;;;23.60;99.90;;;;;;8335465;28;19925;-71
2023/09/11 08:08:34;;;;;;;;;;;23.60;99.90;;;;;;8336773;28;19924;-71
2023/09/11 08:12:36;;;;;;;;;;;23.70;99.90;;;;;;8378404;28;19966;-71
2023/09/11 08:16:38;;;;;;;;;;;23.80;99.90;;;;;;8369200;28;19994;-71
2023/09/11 08:20:45;;;;;;;;;;;23.90;99.90;;;;;;8352132;28;20348;-71
2023/09/11 08:24:47;;;;;;;;;;;24.00;99.90;;;;;;8369610;28;19931;-71
2023/09/11 08:43:59;;;;;;;;;;;24.40;99.90;;;;;;8370524;28;19924;-70
2023/09/11 08:48:02;;;;;;;;;;;24.50;99.90;;;;;;8368524;28;19924;-71
2023/09/11 08:52:05;;;;;;;;;;;24.60;99.90;;;;;;8369093;28;19925;-71
2023/09/11 08:56:07;;;;;;;;;;;24.80;99.90;;;;;;8362549;28;20478;-71
2023/09/11 09:00:11;;;;;;;;;;;24.90;99.90;;;;;;8364167;28;19932;-71
2023/09/11 09:04:13;;;;;;;;;;;25.00;99.90;;;;;;8379997;28;20373;-71
2023/09/11 09:08:16;;;;;;;;;;;25.10;99.90;;;;;;8373614;28;19982;-71
2023/09/11 09:12:17;;;;;;;;;;;25.10;99.90;;;;;;8372074;28;19924;-71
2023/09/11 09:16:19;;;;;;;;;;;25.20;99.90;;;;;;8354756;28;19925;-71
2023/09/11 09:20:21;;;;;;;;;;;25.30;99.90;;;;;;8366252;28;19925;-71
2023/09/11 09:24:23;;;;;;;;;;;25.30;99.90;;;;;;8368481;28;19947;-71
2023/09/11 09:28:28;;;;;;;;;;;25.50;99.90;;;;;;8362736;28;19929;-71
2023/09/11 09:32:35;;;;;;;;;;;25.50;99.90;;;;;;8351862;28;19972;-71
2023/09/11 09:36:36;;;;;;;;;;;25.60;99.90;;;;;;8367984;28;20550;-71
2023/09/11 09:40:39;;;;;;;;;;;25.60;99.90;;;;;;8361280;28;20371;-71
2023/09/11 09:44:42;;;;;;;;;;;25.70;99.90;;;;;;8369168;28;20368;-71
2023/09/11 09:48:43;;;;;;;;;;;25.70;99.90;;;;;;8369911;28;19932;-71
2023/09/11 09:52:45;;;;;;;;;;;25.80;99.90;;;;;;8363775;28;19925;-71
2023/09/11 09:56:47;;;;;;;;;;;25.80;99.90;;;;;;8344673;28;19925;-71
2023/09/11 10:00:49;;;;;;;;;;;25.90;99.90;;;;;;8368686;28;20014;-71
2023/09/11 10:04:52;;;;;;;;;;;26.10;99.90;;;;;;8370264;28;20338;-71
2023/09/11 10:09:04;;;;;;;;;;;26.20;99.90;;;;;;8370700;28;20346;-71
2023/09/11 10:13:07;;;;;;;;;;;26.30;99.90;;;;;;8370155;28;19936;-71
2023/09/11 10:17:09;;;;;;;;;;;26.30;99.90;;;;;;8378023;28;20295;-71
2023/09/11 10:21:10;;;;;;;;;;;26.30;99.90;;;;;;8372252;28;20498;-71
2023/09/11 10:25:12;;;;;;;;;;;26.30;99.90;;;;;;8374449;28;19924;-71
2023/09/11 10:29:18;;;;;;;;;;;26.40;99.90;;;;;;8370377;28;19994;-71
2023/09/11 10:33:21;;;;;;;;;;;26.40;99.90;;;;;;8376864;28;20283;-71
2023/09/11 10:37:23;;;;;;;;;;;26.50;99.90;;;;;;8369122;28;19960;-71
2023/09/11 10:41:26;;;;;;;;;;;26.50;99.90;;;;;;8368449;28;19986;-71
2023/09/11 10:45:32;;;;;;;;;;;26.60;99.90;;;;;;8375860;28;19924;-71
2023/09/11 10:49:38;;;;;;;;;;;26.60;99.90;;;;;;8375884;28;19924;-71
2023/09/11 10:58:43;;;;;;;;;;;26.70;99.90;;;;;;8367668;28;19963;-71
2023/09/11 11:03:00;;;;;;;;;;;26.80;99.90;;;;;;8369965;28;20380;-72
2023/09/11 11:07:02;;;;;;;;;;;26.80;99.90;;;;;;8382776;28;19924;-71
2023/09/11 11:11:03;;;;;;;;;;;26.90;99.90;;;;;;8376647;28;19932;-71
2023/09/11 11:15:24;;;;;;;;;;;26.90;99.90;;;;;;8374021;28;19924;-71
2023/09/11 11:19:30;;;;;;;;;;;27.00;99.90;;;;;;8378583;28;19924;-71
2023/09/11 11:23:33;;;;;;;;;;;27.10;99.90;;;;;;8379604;28;19978;-71
2023/09/11 11:27:35;;;;;;;;;;;27.20;99.90;;;;;;8384488;28;19924;-71
2023/09/11 11:31:38;;;;;;;;;;;27.30;99.90;;;;;;8375137;28;20363;-72
2023/09/11 11:45:47;;;;;;;;;;;27.40;99.90;;;;;;8381441;28;19981;-72
2023/09/11 11:49:51;;;;;;;;;;;27.40;99.90;;;;;;8380422;28;19986;-72
2023/09/11 11:54:24;;;;;;;;;;;27.40;99.90;;;;;;8375767;28;20301;-72
2023/09/11 11:58:26;;;;;;;;;;;27.50;99.90;;;;;;8372297;28;19925;-72
2023/09/11 12:02:28;;;;;;;;;;;27.50;99.90;;;;;;8374675;28;19924;-71
2023/09/11 12:06:29;;;;;;;;;;;27.50;99.90;;;;;;8374550;28;19925;-72
2023/09/11 12:20:38;;;;;;;;;;;27.50;99.90;;;;;;8373989;28;20034;-71
2023/09/11 12:24:40;;;;;;;;;;;27.60;99.90;;;;;;8348108;28;19928;-71
2023/09/11 12:28:41;;;;;;;;;;;27.70;99.90;;;;;;8363761;28;19929;-71
2023/09/11 12:32:47;;;;;;;;;;;27.70;99.90;;;;;;8369175;28;20375;-72
2023/09/11 12:36:48;;;;;;;;;;;27.80;99.90;;;;;;8382650;28;19925;-71
2023/09/11 12:40:51;;;;;;;;;;;27.80;99.90;;;;;;8351537;28;19925;-71
2023/09/11 12:44:54;;;;;;;;;;;27.80;99.90;;;;;;8366746;28;19931;-71
2023/09/11 12:48:56;;;;;;;;;;;27.80;99.90;;;;;;8367886;28;20419;-71
2023/09/11 12:52:58;;;;;;;;;;;27.80;99.90;;;;;;8375115;28;19979;-71
2023/09/11 12:57:03;;;;;;;;;;;27.80;99.90;;;;;;8369618;28;20436;-71
2023/09/11 13:01:05;;;;;;;;;;;27.80;99.90;;;;;;8363836;28;19931;-71
2023/09/11 13:05:07;;;;;;;;;;;27.70;99.90;;;;;;8374455;28;19924;-71
2023/09/11 13:09:10;;;;;;;;;;;27.70;99.90;;;;;;8376544;28;19924;-72
2023/09/11 13:13:12;;;;;;;;;;;27.70;99.90;;;;;;8380723;28;19936;-72
2023/09/11 13:17:22;;;;;;;;;;;27.70;99.90;;;;;;8351919;28;20457;-71
2023/09/11 13:21:23;;;;;;;;;;;27.70;99.90;;;;;;8365241;28;19935;-72
2023/09/11 13:25:25;;;;;;;;;;;27.70;99.90;;;;;;8367588;28;19948;-71
2023/09/11 13:29:27;;;;;;;;;;;27.60;99.90;;;;;;8365527;28;19974;-72
2023/09/11 13:33:28;;;;;;;;;;;27.60;99.90;;;;;;8369570;28;19925;-71
2023/09/11 13:37:30;;;;;;;;;;;27.60;99.90;;;;;;8373840;28;19929;-72
2023/09/11 13:41:32;;;;;;;;;;;27.70;99.90;;;;;;8370342;28;19978;-71
2023/09/11 13:45:33;;;;;;;;;;;27.80;99.90;;;;;;8377325;28;19925;-71
2023/09/11 13:49:35;;;;;;;;;;;27.90;99.90;;;;;;8377068;28;20356;-71
2023/09/11 13:53:37;;;;;;;;;;;27.90;99.90;;;;;;8373310;28;20426;-72
2023/09/11 13:57:38;;;;;;;;;;;27.80;99.90;;;;;;8367420;28;19925;-72
2023/09/11 14:01:40;;;;;;;;;;;27.80;99.90;;;;;;8375044;28;20371;-72
2023/09/11 14:05:42;;;;;;;;;;;27.80;99.90;;;;;;8382497;28;19934;-72
2023/09/11 14:09:47;;;;;;;;;;;27.90;99.90;;;;;;8380299;28;19932;-72
2023/09/11 14:13:48;;;;;;;;;;;27.90;99.90;;;;;;8380321;28;19928;-71
2023/09/11 14:17:52;;;;;;;;;;;27.90;99.90;;;;;;8377038;28;21390;-71
2023/09/11 14:21:53;;;;;;;;;;;27.90;99.90;;;;;;8359958;28;19932;-72
2023/09/11 14:25:56;;;;;;;;;;;28.00;99.90;;;;;;8385979;28;19924;-71
2023/09/11 14:29:57;;;;;;;;;;;28.00;99.90;;;;;;8378921;28;19933;-72
2023/09/11 14:33:59;;;;;;;;;;;27.90;99.90;;;;;;8372612;28;19932;-71
2023/09/11 14:38:01;;;;;;;;;;;27.80;99.90;;;;;;8379380;28;19924;-71
2023/09/11 14:42:02;;;;;;;;;;;27.60;99.90;;;;;;8379752;28;19955;-71
2023/09/11 14:46:04;;;;;;;;;;;27.50;99.90;;;;;;8373934;28;20379;-71
2023/09/11 14:50:09;;;;;;;;;;;27.40;99.90;;;;;;8376659;28;20019;-71
2023/09/11 14:54:10;;;;;;;;;;;27.30;99.90;;;;;;8352612;28;19925;-72
2023/09/11 14:58:12;;;;;;;;;;;27.30;99.90;;;;;;8370855;28;19925;-71
2023/09/11 15:02:14;;;;;;;;;;;27.20;99.90;;;;;;8365772;28;20395;-71
2023/09/11 15:06:16;;;;;;;;;;;27.00;99.90;;;;;;8368266;28;20390;-71
2023/09/11 15:10:18;;;;;;;;;;;26.90;99.90;;;;;;8365839;28;19925;-71
2023/09/11 15:14:19;;;;;;;;;;;26.70;99.90;;;;;;8365104;28;19978;-71
2023/09/11 15:18:21;;;;;;;;;;;26.60;99.90;;;;;;8373683;28;19932;-71
2023/09/11 15:22:23;;;;;;;;;;;26.50;99.90;;;;;;8385940;28;22532;-71
2023/09/11 15:26:25;;;;;;;;;;;26.50;99.90;;;;;;8369185;28;20497;-71
2023/09/11 15:30:27;;;;;;;;;;;26.50;99.90;;;;;;8376381;28;19925;-71
2023/09/11 15:34:29;;;;;;;;;;;26.50;99.90;;;;;;8380063;28;19946;-72
2023/09/11 15:38:31;;;;;;;;;;;26.40;99.90;;;;;;8371531;28;19936;-71
2023/09/11 15:42:33;;;;;;;;;;;26.50;99.90;;;;;;8374077;28;20292;-72
2023/09/11 15:46:35;;;;;;;;;;;26.50;99.90;;;;;;8366578;28;20376;-71
2023/09/11 15:55:46;;;;;;;;;;;26.30;99.90;;;;;;8377022;28;19931;-71
2023/09/11 15:59:48;;;;;;;;;;;26.20;99.90;;;;;;8373289;28;19925;-71
2023/09/11 16:03:50;;;;;;;;;;;26.10;99.90;;;;;;8370767;28;19935;-72
2023/09/11 16:07:51;;;;;;;;;;;26.00;99.90;;;;;;8370065;28;19930;-72
2023/09/11 16:11:53;;;;;;;;;;;25.90;99.90;;;;;;8371362;28;19929;-71
2023/09/11 16:15:55;;;;;;;;;;;25.80;99.90;;;;;;8374222;28;19968;-71
2023/09/11 16:19:57;;;;;;;;;;;25.60;99.90;;;;;;8371161;28;19924;-71
2023/09/11 16:23:58;;;;;;;;;;;25.60;99.90;;;;;;8372269;28;19959;-71
2023/09/11 16:28:01;;;;;;;;;;;25.50;99.90;;;;;;8368109;28;20376;-71
2023/09/11 16:32:03;;;;;;;;;;;25.50;99.90;;;;;;8368356;28;19924;-71
2023/09/11 16:36:04;;;;;;;;;;;25.50;99.90;;;;;;8373527;28;19932;-71
2023/09/11 16:40:07;;;;;;;;;;;25.50;99.90;;;;;;8373806;28;19925;-71
2023/09/11 16:44:08;;;;;;;;;;;25.50;99.90;;;;;;8364310;28;19932;-71
2023/09/11 16:48:10;;;;;;;;;;;25.60;99.90;;;;;;8374434;28;19935;-71
2023/09/11 16:52:12;;;;;;;;;;;25.70;99.90;;;;;;8376715;28;19925;-71
2023/09/11 16:56:14;;;;;;;;;;;25.70;99.90;;;;;;8382714;28;20005;-71
2023/09/11 17:00:16;;;;;;;;;;;25.80;99.90;;;;;;8360237;28;20380;-71
2023/09/11 17:04:18;;;;;;;;;;;25.80;99.90;;;;;;8376395;28;20019;-71
2023/09/11 17:08:19;;;;;;;;;;;25.80;99.90;;;;;;8377540;28;19928;-71
2023/09/11 17:12:21;;;;;;;;;;;25.80;99.90;;;;;;8369986;28;19936;-71
2023/09/11 17:16:23;;;;;;;;;;;25.80;99.90;;;;;;8350116;28;19987;-71
2023/09/11 17:20:25;;;;;;;;;;;25.80;99.90;;;;;;8380136;28;19929;-71
2023/09/11 17:24:27;;;;;;;;;;;25.70;99.90;;;;;;8377274;28;19935;-71
2023/09/11 17:28:28;;;;;;;;;;;25.60;99.90;;;;;;8381752;28;20376;-71
2023/09/11 17:32:36;;;;;;;;;;;25.60;99.90;;;;;;8380692;28;20285;-71
2023/09/11 17:36:38;;;;;;;;;;;25.50;99.90;;;;;;8378592;28;20328;-71
2023/09/11 17:40:40;;;;;;;;;;;25.40;99.90;;;;;;8378535;28;20423;-71
2023/09/11 17:44:41;;;;;;;;;;;25.30;99.90;;;;;;8375027;28;19931;-71
2023/09/11 17:48:44;;;;;;;;;;;25.30;99.90;;;;;;8386228;28;19925;-71
2023/09/11 17:52:46;;;;;;;;;;;25.20;99.90;;;;;;8384910;28;19947;-71
2023/09/11 17:56:48;;;;;;;;;;;25.20;99.90;;;;;;8384436;28;19925;-71
2023/09/11 18:00:50;;;;;;;;;;;25.20;99.90;;;;;;8365056;28;19946;-70
2023/09/11 18:04:52;;;;;;;;;;;25.10;99.90;;;;;;8374923;28;19970;-71
2023/09/11 18:08:55;;;;;;;;;;;25.10;99.90;;;;;;8378801;28;19947;-71
2023/09/11 18:12:57;;;;;;;;;;;24.90;99.90;;;;;;8375409;28;19932;-71
2023/09/11 18:16:59;;;;;;;;;;;24.80;99.90;;;;;;8375629;28;19929;-71
2023/09/11 18:21:01;;;;;;;;;;;24.80;99.90;;;;;;8378576;28;20300;-71
2023/09/11 18:25:03;;;;;;;;;;;24.80;99.90;;;;;;8377459;28;19932;-71
2023/09/11 18:29:16;;;;;;;;;;;24.80;99.90;;;;;;8361919;28;19935;-71
2023/09/11 18:33:18;;;;;;;;;;;24.70;99.90;;;;;;8376491;28;19991;-71
2023/09/11 18:37:19;;;;;;;;;;;24.70;99.90;;;;;;8379041;28;19995;-71
2023/09/11 18:41:21;;;;;;;;;;;24.60;99.90;;;;;;8373903;28;19932;-71
2023/09/11 18:45:23;;;;;;;;;;;24.60;99.90;;;;;;8379046;28;19950;-71
2023/09/11 18:49:27;;;;;;;;;;;24.60;99.90;;;;;;8369902;28;19925;-71
2023/09/11 18:53:28;;;;;;;;;;;24.50;99.90;;;;;;8353094;28;19931;-71
2023/09/11 18:57:30;;;;;;;;;;;24.50;99.90;;;;;;8360621;28;19925;-71
2023/09/11 19:01:32;;;;;;;;;;;24.40;99.90;;;;;;8388967;28;19925;-71
2023/09/11 19:05:33;;;;;;;;;;;24.40;99.90;;;;;;8377581;28;20466;-71
2023/09/11 19:09:35;;;;;;;;;;;24.40;99.90;;;;;;8366070;28;19936;-71
2023/09/11 19:13:37;;;;;;;;;;;24.30;99.90;;;;;;8368960;28;19928;-71
2023/09/11 19:17:38;;;;;;;;;;;24.20;99.90;;;;;;8386160;28;19929;-71
2023/09/11 19:21:40;;;;;;;;;;;24.10;99.90;;;;;;8368792;28;19925;-71
2023/09/11 19:25:42;;;;;;;;;;;24.00;99.90;;;;;;8388182;28;19924;-71
2023/09/11 19:29:44;;;;;;;;;;;24.00;99.90;;;;;;8376746;28;20034;-71
2023/09/11 19:33:47;;;;;;;;;;;24.00;99.90;;;;;;8352804;28;19984;-71
2023/09/11 19:37:48;;;;;;;;;;;23.90;99.90;;;;;;8364993;28;19931;-71
2023/09/11 19:41:50;;;;;;;;;;;23.80;99.90;;;;;;8384167;28;19929;-71
2023/09/11 19:45:52;;;;;;;;;;;23.80;99.90;;;;;;8372960;28;19978;-71
2023/09/11 19:49:53;;;;;;;;;;;23.70;99.90;;;;;;8382175;28;20337;-71
2023/09/11 19:53:55;;;;;;;;;;;23.60;99.90;;;;;;8375896;28;19924;-71
2023/09/11 19:57:57;;;;;;;;;;;23.60;99.90;;;;;;8365010;28;19936;-71
2023/09/11 20:01:58;;;;;;;;;;;23.60;99.90;;;;;;8368429;28;19970;-71
2023/09/11 20:06:00;;;;;;;;;;;23.60;99.90;;;;;;8374986;28;20027;-71
2023/09/11 20:10:03;;;;;;;;;;;23.50;99.90;;;;;;8381076;28;19925;-71
2023/09/11 20:14:05;;;;;;;;;;;23.50;99.90;;;;;;8380482;28;19975;-71
2023/09/11 20:18:07;;;;;;;;;;;23.50;99.90;;;;;;8374021;28;20355;-71
2023/09/11 20:22:09;;;;;;;;;;;23.50;99.90;;;;;;8367546;28;19925;-71
2023/09/11 20:26:10;;;;;;;;;;;23.40;99.90;;;;;;8380352;28;19931;-71
2023/09/11 20:30:13;;;;;;;;;;;23.40;99.90;;;;;;8372655;28;19929;-71
2023/09/11 20:34:15;;;;;;;;;;;23.30;99.90;;;;;;8367155;28;19929;-71
2023/09/11 20:38:20;;;;;;;;;;;23.30;99.90;;;;;;8371671;28;19971;-70
2023/09/11 20:42:21;;;;;;;;;;;23.20;99.90;;;;;;8372639;28;19940;-70
2023/09/11 20:46:25;;;;;;;;;;;23.20;99.90;;;;;;8369167;28;19990;-71
2023/09/11 20:50:26;;;;;;;;;;;23.20;99.90;;;;;;8370043;28;19933;-70
2023/09/11 20:54:28;;;;;;;;;;;23.10;99.90;;;;;;8380222;28;19932;-71
2023/09/11 20:58:30;;;;;;;;;;;23.00;99.90;;;;;;8376532;28;20362;-71
2023/09/11 21:02:32;;;;;;;;;;;22.90;99.90;;;;;;8375741;28;19965;-71
2023/09/11 21:06:34;;;;;;;;;;;22.80;99.90;;;;;;8373144;28;19932;-71
2023/09/11 21:10:36;;;;;;;;;;;22.80;99.90;;;;;;8371940;28;19934;-71
2023/09/11 21:14:38;;;;;;;;;;;22.90;99.90;;;;;;8350334;28;20652;-71
2023/09/11 21:18:39;;;;;;;;;;;22.80;99.90;;;;;;8368042;28;20169;-71
2023/09/11 21:22:41;;;;;;;;;;;22.90;99.90;;;;;;8366687;28;19978;-71
2023/09/11 21:26:43;;;;;;;;;;;22.80;99.90;;;;;;8374064;28;19925;-71
2023/09/11 21:30:45;;;;;;;;;;;22.80;99.90;;;;;;8361853;28;19929;-70
2023/09/11 21:34:46;;;;;;;;;;;22.70;99.90;;;;;;8374863;28;20344;-71
2023/09/11 21:38:48;;;;;;;;;;;22.70;99.90;;;;;;8380514;28;19943;-70
2023/09/11 21:42:50;;;;;;;;;;;22.70;99.90;;;;;;8369923;28;20555;-70
2023/09/11 21:46:52;;;;;;;;;;;22.70;99.90;;;;;;8368601;28;19932;-70
2023/09/11 21:50:53;;;;;;;;;;;22.70;99.90;;;;;;8372570;28;19925;-70
2023/09/11 21:54:55;;;;;;;;;;;22.70;99.90;;;;;;8367399;28;19931;-70
2023/09/11 21:58:57;;;;;;;;;;;22.80;99.90;;;;;;8366887;28;19955;-70
2023/09/11 22:02:58;;;;;;;;;;;22.80;99.90;;;;;;8377879;28;19931;-71
2023/09/11 22:07:00;;;;;;;;;;;22.80;99.90;;;;;;8352233;28;20384;-70
2023/09/11 22:11:02;;;;;;;;;;;22.70;99.90;;;;;;8381299;28;19929;-70
2023/09/11 22:20:16;;;;;;;;;;;22.70;99.90;;;;;;8377310;28;19990;-71
2023/09/11 22:24:18;;;;;;;;;;;22.60;99.90;;;;;;8385383;28;20407;-70
2023/09/11 22:28:19;;;;;;;;;;;22.60;99.90;;;;;;8354072;28;20031;-70
2023/09/11 22:32:21;;;;;;;;;;;22.50;99.90;;;;;;8373159;28;22170;-70
2023/09/11 22:36:23;;;;;;;;;;;22.50;99.90;;;;;;8371474;28;19924;-70
2023/09/11 22:40:25;;;;;;;;;;;22.50;99.90;;;;;;8373009;28;19947;-70
2023/09/11 22:44:31;;;;;;;;;;;22.50;99.90;;;;;;8375218;28;19928;-70
2023/09/11 22:48:33;;;;;;;;;;;22.40;99.90;;;;;;8369093;28;20584;-70
2023/09/11 22:52:34;;;;;;;;;;;22.40;99.90;;;;;;8377838;28;19959;-70
2023/09/11 22:56:39;;;;;;;;;;;22.40;99.90;;;;;;8378959;28;19928;-70
2023/09/11 23:00:41;;;;;;;;;;;22.30;99.90;;;;;;8373783;28;19936;-70
2023/09/11 23:04:42;;;;;;;;;;;22.30;99.90;;;;;;8370865;28;19972;-70
2023/09/11 23:08:44;;;;;;;;;;;22.30;99.90;;;;;;8373598;28;19982;-70
2023/09/11 23:12:46;;;;;;;;;;;22.30;99.90;;;;;;8374732;28;19928;-70
2023/09/11 23:16:47;;;;;;;;;;;22.20;99.90;;;;;;8355215;28;19932;-71
2023/09/11 23:20:49;;;;;;;;;;;22.20;99.90;;;;;;8366272;28;19932;-70
2023/09/11 23:24:51;;;;;;;;;;;22.20;99.90;;;;;;8357239;28;20287;-70
2023/09/11 23:28:52;;;;;;;;;;;22.10;99.90;;;;;;8379774;28;19932;-70
2023/09/11 23:32:54;;;;;;;;;;;22.10;99.90;;;;;;8373283;28;20489;-70
2023/09/11 23:36:56;;;;;;;;;;;22.10;99.90;;;;;;8374405;28;19925;-70
2023/09/11 23:40:58;;;;;;;;;;;22.00;99.90;;;;;;8372566;28;20379;-70
2023/09/11 23:45:00;;;;;;;;;;;21.90;99.90;;;;;;8378919;28;19939;-70
2023/09/11 23:59:08;;;;;;;;;;;21.70;99.90;;;;;;8379184;28;19926;-70
